sensor_id;sensor_type;location;lat;lon;timestamp;pressure;altitude;pressure_sealevel;temperature;humidity
51439;BME280;38816;51.142;-0.974;2023-05-12T00:01:12;100386.88;;;9.13;100.00
51439;BME280;38816;51.142;-0.974;2023-05-12T00:03:40;100383.41;;;9.11;100.00
51439;BME280;38816;51.142;-0.974;2023-05-12T00:06:06;100386.72;;;9.07;100.00
51439;BME280;38816;51.142;-0.974;2023-05-12T00:08:31;100391.88;;;9.07;100.00
51439;BME280;38816;51.142;-0.974;2023-05-12T00:10:57;100380.56;;;9.00;100.00
51439;BME280;38816;51.142;-0.974;2023-05-12T00:13:23;100383.94;;;8.98;100.00
51439;BME280;38816;51.142;-0.974;2023-05-12T00:15:49;100396.88;;;9.02;100.00
51439;BME280;38816;51.142;-0.974;2023-05-12T00:18:16;100388.94;;;8.93;100.00
51439;BME280;38816;51.142;-0.974;2023-05-12T00:20:41;100389.78;;;8.92;100.00
51439;BME280;38816;51.142;-0.974;2023-05-12T00:23:07;100396.66;;;8.95;100.00
51439;BME280;38816;51.142;-0.974;2023-05-12T00:25:33;100390.56;;;8.90;100.00
51439;BME280;38816;51.142;-0.974;2023-05-12T00:27:58;100407.75;;;8.94;100.00
51439;BME280;38816;51.142;-0.974;2023-05-12T00:30:24;100391.34;;;8.87;100.00
51439;BME280;38816;51.142;-0.974;2023-05-12T00:32:50;100404.31;;;8.92;100.00
51439;BME280;38816;51.142;-0.974;2023-05-12T00:35:15;100407.66;;;8.91;100.00
51439;BME280;38816;51.142;-0.974;2023-05-12T00:37:41;100395.53;;;8.83;100.00
51439;BME280;38816;51.142;-0.974;2023-05-12T00:40:07;100408.38;;;8.83;100.00
51439;BME280;38816;51.142;-0.974;2023-05-12T00:42:34;100415.25;;;8.86;100.00
51439;BME280;38816;51.142;-0.974;2023-05-12T00:45:00;100416.84;;;8.82;100.00
51439;BME280;38816;51.142;-0.974;2023-05-12T00:47:25;100420.22;;;8.80;100.00
51439;BME280;38816;51.142;-0.974;2023-05-12T00:49:51;100418.44;;;8.77;100.00
51439;BME280;38816;51.142;-0.974;2023-05-12T00:52:17;100419.19;;;8.73;100.00
51439;BME280;38816;51.142;-0.974;2023-05-12T00:54:43;100419.03;;;8.67;100.00
51439;BME280;38816;51.142;-0.974;2023-05-12T00:57:09;100422.44;;;8.68;100.00
51439;BME280;38816;51.142;-0.974;2023-05-12T00:59:35;100432.81;;;8.72;100.00
51439;BME280;38816;51.142;-0.974;2023-05-12T01:02:01;100424.88;;;8.63;100.00
51439;BME280;38816;51.142;-0.974;2023-05-12T01:04:27;100415.31;;;8.56;100.00
51439;BME280;38816;51.142;-0.974;2023-05-12T01:06:58;100428.31;;;8.63;100.00
51439;BME280;38816;51.142;-0.974;2023-05-12T01:09:24;100430.75;;;8.59;100.00
51439;BME280;38816;51.142;-0.974;2023-05-12T01:11:50;100426.44;;;8.56;100.00
51439;BME280;38816;51.142;-0.974;2023-05-12T01:14:17;100418.50;;;8.47;100.00
51439;BME280;38816;51.142;-0.974;2023-05-12T01:16:48;100422.56;;;8.41;100.00
51439;BME280;38816;51.142;-0.974;2023-05-12T01:22:07;100429.34;;;8.39;100.00
51439;BME280;38816;51.142;-0.974;2023-05-12T01:24:38;100436.22;;;8.40;100.00
51439;BME280;38816;51.142;-0.974;2023-05-12T01:27:06;100437.09;;;8.42;100.00
51439;BME280;38816;51.142;-0.974;2023-05-12T01:29:33;100432.78;;;8.39;100.00
51439;BME280;38816;51.142;-0.974;2023-05-12T01:31:59;100440.47;;;8.39;100.00
51439;BME280;38816;51.142;-0.974;2023-05-12T01:34:25;100426.66;;;8.35;100.00
51439;BME280;38816;51.142;-0.974;2023-05-12T01:36:51;100422.28;;;8.31;100.00
51439;BME280;38816;51.142;-0.974;2023-05-12T01:39:16;100432.63;;;8.34;100.00
51439;BME280;38816;51.142;-0.974;2023-05-12T01:41:42;100415.56;;;8.35;100.00
51439;BME280;38816;51.142;-0.974;2023-05-12T01:44:07;100439.75;;;8.45;100.00
51439;BME280;38816;51.142;-0.974;2023-05-12T01:46:33;100438.88;;;8.43;100.00
51439;BME280;38816;51.142;-0.974;2023-05-12T01:48:58;100443.94;;;8.41;100.00
51439;BME280;38816;51.142;-0.974;2023-05-12T01:51:23;100442.16;;;8.39;100.00
51439;BME280;38816;51.142;-0.974;2023-05-12T01:53:49;100442.91;;;8.36;100.00
51439;BME280;38816;51.142;-0.974;2023-05-12T01:56:14;100434.00;;;8.23;100.00
51439;BME280;38816;51.142;-0.974;2023-05-12T01:58:39;100454.75;;;8.32;100.00
51439;BME280;38816;51.142;-0.974;2023-05-12T02:01:05;100436.53;;;8.23;100.00
51439;BME280;38816;51.142;-0.974;2023-05-12T02:03:30;100448.50;;;8.23;100.00
51439;BME280;38816;51.142;-0.974;2023-05-12T02:05:55;100457.03;;;8.23;100.00
51439;BME280;38816;51.142;-0.974;2023-05-12T02:08:21;100456.13;;;8.21;100.00
51439;BME280;38816;51.142;-0.974;2023-05-12T02:10:46;100459.56;;;8.22;100.00
51439;BME280;38816;51.142;-0.974;2023-05-12T02:13:12;100456.03;;;8.18;100.00
51439;BME280;38816;51.142;-0.974;2023-05-12T02:15:37;100464.69;;;8.22;100.00
51439;BME280;38816;51.142;-0.974;2023-05-12T02:18:02;100449.91;;;8.13;100.00
51439;BME280;38816;51.142;-0.974;2023-05-12T02:20:28;100454.28;;;8.16;100.00
51439;BME280;38816;51.142;-0.974;2023-05-12T02:22:54;100468.06;;;8.21;100.00
51439;BME280;38816;51.142;-0.974;2023-05-12T02:25:19;100473.19;;;8.21;100.00
51439;BME280;38816;51.142;-0.974;2023-05-12T02:27:45;100453.44;;;8.17;100.00
51439;BME280;38816;51.142;-0.974;2023-05-12T02:30:10;100462.16;;;8.23;100.00
51439;BME280;38816;51.142;-0.974;2023-05-12T02:32:36;100469.06;;;8.26;100.00
51439;BME280;38816;51.142;-0.974;2023-05-12T02:35:02;100467.25;;;8.22;100.00
51439;BME280;38816;51.142;-0.974;2023-05-12T02:37:27;100477.63;;;8.26;100.00
51439;BME280;38816;51.142;-0.974;2023-05-12T02:39:53;100482.75;;;8.26;100.00
51439;BME280;38816;51.142;-0.974;2023-05-12T02:42:18;100461.94;;;8.16;100.00
51439;BME280;38816;51.142;-0.974;2023-05-12T02:44:43;100486.06;;;8.24;100.00
51439;BME280;38816;51.142;-0.974;2023-05-12T02:47:09;100474.03;;;8.20;100.00
51439;BME280;38816;51.142;-0.974;2023-05-12T02:49:37;100485.28;;;8.25;100.00
51439;BME280;38816;51.142;-0.974;2023-05-12T02:52:03;100483.56;;;8.25;100.00
51439;BME280;38816;51.142;-0.974;2023-05-12T02:54:28;100485.22;;;8.23;100.00
51439;BME280;38816;51.142;-0.974;2023-05-12T02:56:54;100482.75;;;8.26;100.00
51439;BME280;38816;51.142;-0.974;2023-05-12T02:59:22;100470.56;;;8.19;100.00
51439;BME280;38816;51.142;-0.974;2023-05-12T03:01:47;100476.50;;;8.17;100.00
51439;BME280;38816;51.142;-0.974;2023-05-12T03:04:13;100486.03;;;8.22;100.00
51439;BME280;38816;51.142;-0.974;2023-05-12T03:06:38;100489.53;;;8.24;100.00
51439;BME280;38816;51.142;-0.974;2023-05-12T03:09:04;100480.00;;;8.20;100.00
51439;BME280;38816;51.142;-0.974;2023-05-12T03:11:29;100478.19;;;8.16;100.00
51439;BME280;38816;51.142;-0.974;2023-05-12T03:13:55;100480.75;;;8.16;100.00
51439;BME280;38816;51.142;-0.974;2023-05-12T03:16:20;100492.81;;;8.20;100.00
51439;BME280;38816;51.142;-0.974;2023-05-12T03:18:46;100487.50;;;8.14;100.00
51439;BME280;38816;51.142;-0.974;2023-05-12T03:21:11;100506.41;;;8.19;100.00
51439;BME280;38816;51.142;-0.974;2023-05-12T03:23:37;100487.69;;;8.20;100.00
51439;BME280;38816;51.142;-0.974;2023-05-12T03:26:02;100494.66;;;8.24;100.00
51439;BME280;38816;51.142;-0.974;2023-05-12T03:28:28;100502.47;;;8.29;100.00
51439;BME280;38816;51.142;-0.974;2023-05-12T03:30:53;100500.84;;;8.32;100.00
51439;BME280;38816;51.142;-0.974;2023-05-12T03:33:18;100497.47;;;8.33;100.00
51439;BME280;38816;51.142;-0.974;2023-05-12T03:35:44;100501.38;;;8.49;100.00
51439;BME280;38816;51.142;-0.974;2023-05-12T03:38:09;100490.38;;;8.52;100.00
51439;BME280;38816;51.142;-0.974;2023-05-12T03:40:35;100502.59;;;8.62;100.00
51439;BME280;38816;51.142;-0.974;2023-05-12T03:43:00;100484.75;;;8.65;100.00
51439;BME280;38816;51.142;-0.974;2023-05-12T03:45:26;100503.97;;;8.81;100.00
51439;BME280;38816;51.142;-0.974;2023-05-12T03:47:51;100501.66;;;8.90;100.00
51439;BME280;38816;51.142;-0.974;2023-05-12T03:50:20;100509.69;;;9.02;100.00
51439;BME280;38816;51.142;-0.974;2023-05-12T03:52:46;100505.34;;;9.00;100.00
51439;BME280;38816;51.142;-0.974;2023-05-12T03:55:11;100520.09;;;9.07;100.00
51439;BME280;38816;51.142;-0.974;2023-05-12T03:57:37;100528.63;;;9.07;100.00
51439;BME280;38816;51.142;-0.974;2023-05-12T04:00:04;100529.41;;;9.05;100.00
51439;BME280;38816;51.142;-0.974;2023-05-12T04:02:29;100538.81;;;9.04;100.00
51439;BME280;38816;51.142;-0.974;2023-05-12T04:04:55;100538.00;;;9.05;100.00
51439;BME280;38816;51.142;-0.974;2023-05-12T04:07:20;100522.41;;;8.98;100.00
51439;BME280;38816;51.142;-0.974;2023-05-12T04:09:45;100539.50;;;8.99;100.00
51439;BME280;38816;51.142;-0.974;2023-05-12T04:12:11;100530.91;;;8.97;100.00
51439;BME280;38816;51.142;-0.974;2023-05-12T04:14:36;100546.06;;;8.87;100.00
51439;BME280;38816;51.142;-0.974;2023-05-12T04:17:03;100533.03;;;8.81;100.00
51439;BME280;38816;51.142;-0.974;2023-05-12T04:19:28;100533.03;;;8.81;100.00
51439;BME280;38816;51.142;-0.974;2023-05-12T04:21:54;100536.34;;;8.77;100.00
51439;BME280;38816;51.142;-0.974;2023-05-12T04:24:19;100544.28;;;8.86;100.00
51439;BME280;38816;51.142;-0.974;2023-05-12T04:26:45;100555.56;;;8.92;100.00
51439;BME280;38816;51.142;-0.974;2023-05-12T04:29:10;100541.72;;;8.86;100.00
51439;BME280;38816;51.142;-0.974;2023-05-12T04:31:37;100548.66;;;8.89;100.00
51439;BME280;38816;51.142;-0.974;2023-05-12T04:34:02;100532.56;;;8.95;100.00
51439;BME280;38816;51.142;-0.974;2023-05-12T04:36:28;100545.63;;;9.04;100.00
51439;BME280;38816;51.142;-0.974;2023-05-12T04:38:53;100552.63;;;9.09;100.00
51439;BME280;38816;51.142;-0.974;2023-05-12T04:41:20;100546.56;;;9.06;100.00
51439;BME280;38816;51.142;-0.974;2023-05-12T04:43:45;100563.16;;;9.19;100.00
51439;BME280;38816;51.142;-0.974;2023-05-12T04:46:11;100550.25;;;9.17;100.00
51439;BME280;38816;51.142;-0.974;2023-05-12T04:48:36;100555.41;;;9.17;100.00
51439;BME280;38816;51.142;-0.974;2023-05-12T04:51:06;100552.09;;;9.21;100.00
51439;BME280;38816;51.142;-0.974;2023-05-12T04:53:31;100565.19;;;9.32;100.00
51439;BME280;38816;51.142;-0.974;2023-05-12T04:55:58;100558.31;;;9.29;100.00
51439;BME280;38816;51.142;-0.974;2023-05-12T04:58:24;100566.31;;;9.42;100.00
51439;BME280;38816;51.142;-0.974;2023-05-12T05:00:50;100571.63;;;9.49;100.00
51439;BME280;38816;51.142;-0.974;2023-05-12T05:03:15;100569.06;;;9.49;100.00
51439;BME280;38816;51.142;-0.974;2023-05-12T05:05:41;100578.72;;;9.58;100.00
51439;BME280;38816;51.142;-0.974;2023-05-12T05:08:06;100580.44;;;9.59;100.00
51439;BME280;38816;51.142;-0.974;2023-05-12T05:10:32;100584.81;;;9.63;100.00
51439;BME280;38816;51.142;-0.974;2023-05-12T05:12:58;100591.03;;;9.71;100.00
51439;BME280;38816;51.142;-0.974;2023-05-12T05:15:23;100584.16;;;9.70;100.00
51439;BME280;38816;51.142;-0.974;2023-05-12T05:17:48;100589.53;;;9.79;100.00
51439;BME280;38816;51.142;-0.974;2023-05-12T05:20:14;100598.22;;;9.84;100.00
51439;BME280;38816;51.142;-0.974;2023-05-12T05:22:40;100602.44;;;9.82;100.00
51439;BME280;38816;51.142;-0.974;2023-05-12T05:25:06;100606.53;;;9.74;100.00
51439;BME280;38816;51.142;-0.974;2023-05-12T05:27:31;100597.84;;;9.69;100.00
51439;BME280;38816;51.142;-0.974;2023-05-12T05:29:56;100607.50;;;9.79;100.00
51439;BME280;38816;51.142;-0.974;2023-05-12T05:32:22;100610.16;;;9.82;100.00
51439;BME280;38816;51.142;-0.974;2023-05-12T05:34:47;100607.47;;;9.78;100.00
51439;BME280;38816;51.142;-0.974;2023-05-12T05:37:13;100611.97;;;9.86;100.00
51439;BME280;38816;51.142;-0.974;2023-05-12T05:39:38;100620.03;;;10.02;100.00
51439;BME280;38816;51.142;-0.974;2023-05-12T05:42:03;100613.31;;;10.07;100.00
51439;BME280;38816;51.142;-0.974;2023-05-12T05:44:29;100610.59;;;10.01;100.00
51439;BME280;38816;51.142;-0.974;2023-05-12T05:46:54;100615.97;;;10.10;100.00
51439;BME280;38816;51.142;-0.974;2023-05-12T05:49:20;100635.75;;;10.14;100.00
51439;BME280;38816;51.142;-0.974;2023-05-12T05:51:45;100634.06;;;10.14;100.00
51439;BME280;38816;51.142;-0.974;2023-05-12T05:54:10;100649.41;;;10.13;100.00
51439;BME280;38816;51.142;-0.974;2023-05-12T05:56:36;100656.22;;;10.11;100.00
51439;BME280;38816;51.142;-0.974;2023-05-12T05:59:01;100639.00;;;10.07;100.00
51439;BME280;38816;51.142;-0.974;2023-05-12T06:01:29;100653.81;;;10.17;100.00
51439;BME280;38816;51.142;-0.974;2023-05-12T06:03:54;100660.59;;;10.13;100.00
51439;BME280;38816;51.142;-0.974;2023-05-12T06:06:20;100655.41;;;10.12;100.00
51439;BME280;38816;51.142;-0.974;2023-05-12T06:08:45;100658.88;;;10.14;100.00
51439;BME280;38816;51.142;-0.974;2023-05-12T06:11:11;100660.72;;;10.20;100.00
51439;BME280;38816;51.142;-0.974;2023-05-12T06:13:36;100669.56;;;10.29;100.00
51439;BME280;38816;51.142;-0.974;2023-05-12T06:16:01;100658.38;;;10.27;100.00
51439;BME280;38816;51.142;-0.974;2023-05-12T06:18:27;100659.59;;;10.42;100.00
51439;BME280;38816;51.142;-0.974;2023-05-12T06:20:52;100673.75;;;10.62;100.00
51439;BME280;38816;51.142;-0.974;2023-05-12T06:23:17;100657.34;;;10.57;100.00
51439;BME280;38816;51.142;-0.974;2023-05-12T06:25:43;100667.16;;;10.73;100.00
51439;BME280;38816;51.142;-0.974;2023-05-12T06:28:08;100663.69;;;10.71;100.00
51439;BME280;38816;51.142;-0.974;2023-05-12T06:30:34;100666.44;;;10.80;100.00
51439;BME280;38816;51.142;-0.974;2023-05-12T06:32:59;100663.06;;;10.81;100.00
51439;BME280;38816;51.142;-0.974;2023-05-12T06:35:25;100674.44;;;10.93;100.00
51439;BME280;38816;51.142;-0.974;2023-05-12T06:37:50;100669.38;;;10.96;100.00
51439;BME280;38816;51.142;-0.974;2023-05-12T06:40:16;100668.53;;;10.97;100.00
51439;BME280;38816;51.142;-0.974;2023-05-12T06:42:42;100679.66;;;10.96;100.00
51439;BME280;38816;51.142;-0.974;2023-05-12T06:45:08;100666.44;;;10.80;100.00
51439;BME280;38816;51.142;-0.974;2023-05-12T06:47:33;100685.56;;;10.90;100.00
51439;BME280;38816;51.142;-0.974;2023-05-12T06:49:59;100686.25;;;10.84;100.00
51439;BME280;38816;51.142;-0.974;2023-05-12T06:52:24;100688.72;;;10.80;100.00
51439;BME280;38816;51.142;-0.974;2023-05-12T06:54:50;100696.56;;;10.84;100.00
51439;BME280;38816;51.142;-0.974;2023-05-12T06:57:15;100690.50;;;10.81;100.00
51439;BME280;38816;51.142;-0.974;2023-05-12T06:59:40;100687.81;;;10.76;100.00
51439;BME280;38816;51.142;-0.974;2023-05-12T07:02:06;100684.53;;;10.83;100.00
51439;BME280;38816;51.142;-0.974;2023-05-12T07:04:31;100691.47;;;10.86;100.00
51439;BME280;38816;51.142;-0.974;2023-05-12T07:06:56;100693.88;;;10.80;100.00
51439;BME280;38816;51.142;-0.974;2023-05-12T07:09:22;100701.50;;;10.75;100.00
51439;BME280;38816;51.142;-0.974;2023-05-12T07:11:47;100706.59;;;10.72;100.00
51439;BME280;38816;51.142;-0.974;2023-05-12T07:14:12;100708.31;;;10.73;100.00
51439;BME280;38816;51.142;-0.974;2023-05-12T07:16:38;100705.19;;;10.86;100.00
51439;BME280;38816;51.142;-0.974;2023-05-12T07:19:03;100699.31;;;10.94;100.00
51439;BME280;38816;51.142;-0.974;2023-05-12T07:21:30;100700.53;;;11.09;100.00
51439;BME280;38816;51.142;-0.974;2023-05-12T07:23:56;100692.81;;;11.08;100.00
51439;BME280;38816;51.142;-0.974;2023-05-12T07:26:21;100704.97;;;11.16;100.00
51439;BME280;38816;51.142;-0.974;2023-05-12T07:28:48;100700.66;;;11.14;100.00
51439;BME280;38816;51.142;-0.974;2023-05-12T07:31:14;100703.34;;;11.20;100.00
51439;BME280;38816;51.142;-0.974;2023-05-12T07:33:39;100698.47;;;11.34;100.00
51439;BME280;38816;51.142;-0.974;2023-05-12T07:36:05;100708.63;;;11.69;100.00
51439;BME280;38816;51.142;-0.974;2023-05-12T07:38:32;100718.06;;;12.12;100.00
51439;BME280;38816;51.142;-0.974;2023-05-12T07:40:59;100705.66;;;12.42;100.00
51439;BME280;38816;51.142;-0.974;2023-05-12T07:43:24;100709.44;;;12.64;100.00
51439;BME280;38816;51.142;-0.974;2023-05-12T07:45:50;100713.78;;;12.65;100.00
51439;BME280;38816;51.142;-0.974;2023-05-12T07:48:15;100711.47;;;12.84;100.00
51439;BME280;38816;51.142;-0.974;2023-05-12T07:50:41;100703.63;;;12.76;100.00
51439;BME280;38816;51.142;-0.974;2023-05-12T07:53:06;100704.69;;;12.90;100.00
51439;BME280;38816;51.142;-0.974;2023-05-12T07:55:32;100702.03;;;12.84;100.00
51439;BME280;38816;51.142;-0.974;2023-05-12T07:57:57;100707.06;;;12.78;100.00
51439;BME280;38816;51.142;-0.974;2023-05-12T08:00:23;100707.00;;;12.72;100.00
51439;BME280;38816;51.142;-0.974;2023-05-12T08:02:48;100701.81;;;12.71;100.00
51439;BME280;38816;51.142;-0.974;2023-05-12T08:05:14;100714.81;;;12.78;100.00
51439;BME280;38816;51.142;-0.974;2023-05-12T08:07:39;100714.75;;;12.72;100.00
51439;BME280;38816;51.142;-0.974;2023-05-12T08:10:08;100702.09;;;12.90;100.00
51439;BME280;38816;51.142;-0.974;2023-05-12T08:12:34;100694.81;;;13.23;100.00
51439;BME280;38816;51.142;-0.974;2023-05-12T08:14:59;100699.50;;;13.51;100.00
51439;BME280;38816;51.142;-0.974;2023-05-12T08:17:25;100697.84;;;13.58;100.00
51439;BME280;38816;51.142;-0.974;2023-05-12T08:19:50;100692.56;;;13.50;100.00
51439;BME280;38816;51.142;-0.974;2023-05-12T08:22:16;100696.81;;;13.42;100.00
51439;BME280;38816;51.142;-0.974;2023-05-12T08:24:41;100696.59;;;13.28;100.00
51439;BME280;38816;51.142;-0.974;2023-05-12T08:27:07;100699.28;;;13.34;100.00
51439;BME280;38816;51.142;-0.974;2023-05-12T08:29:32;100694.34;;;13.53;100.00
51439;BME280;38816;51.142;-0.974;2023-05-12T08:31:58;100693.81;;;13.83;100.00
51439;BME280;38816;51.142;-0.974;2023-05-12T08:34:24;100705.34;;;14.15;100.00
51439;BME280;38816;51.142;-0.974;2023-05-12T08:36:52;100708.97;;;14.39;100.00
51439;BME280;38816;51.142;-0.974;2023-05-12T08:39:18;100707.38;;;14.49;100.00
51439;BME280;38816;51.142;-0.974;2023-05-12T08:42:02;100691.75;;;14.36;100.00
51439;BME280;38816;51.142;-0.974;2023-05-12T08:44:34;100701.16;;;14.31;100.00
51439;BME280;38816;51.142;-0.974;2023-05-12T08:47:00;100719.09;;;14.11;100.00
51439;BME280;38816;51.142;-0.974;2023-05-12T08:49:30;100712.94;;;14.00;100.00
51439;BME280;38816;51.142;-0.974;2023-05-12T08:51:58;100705.38;;;14.18;100.00
51439;BME280;38816;51.142;-0.974;2023-05-12T08:54:26;100714.97;;;14.33;100.00
51439;BME280;38816;51.142;-0.974;2023-05-12T08:56:52;100698.59;;;14.34;100.00
51439;BME280;38816;51.142;-0.974;2023-05-12T08:59:18;100714.81;;;14.18;100.00
51439;BME280;38816;51.142;-0.974;2023-05-12T09:01:44;100707.66;;;13.91;100.00
51439;BME280;38816;51.142;-0.974;2023-05-12T09:04:11;100724.78;;;13.80;100.00
51439;BME280;38816;51.142;-0.974;2023-05-12T09:06:42;100722.81;;;13.56;100.00
51439;BME280;38816;51.142;-0.974;2023-05-12T09:09:08;100720.88;;;13.38;100.00
51439;BME280;38816;51.142;-0.974;2023-05-12T09:11:34;100731.16;;;13.36;100.00
51439;BME280;38816;51.142;-0.974;2023-05-12T09:14:02;100740.50;;;13.27;100.00
51439;BME280;38816;51.142;-0.974;2023-05-12T09:16:31;100731.88;;;13.26;100.00
51439;BME280;38816;51.142;-0.974;2023-05-12T09:18:59;100726.19;;;13.52;100.00
51439;BME280;38816;51.142;-0.974;2023-05-12T09:21:25;100739.38;;;13.76;100.00
51439;BME280;38816;51.142;-0.974;2023-05-12T09:23:58;100726.72;;;13.99;100.00
51439;BME280;38816;51.142;-0.974;2023-05-12T09:26:25;100727.69;;;14.12;100.00
51439;BME280;38816;51.142;-0.974;2023-05-12T09:28:53;100731.19;;;14.17;100.00
51439;BME280;38816;51.142;-0.974;2023-05-12T09:31:20;100744.22;;;14.25;98.80
51439;BME280;38816;51.142;-0.974;2023-05-12T09:33:47;100740.84;;;14.33;100.00
51439;BME280;38816;51.142;-0.974;2023-05-12T09:36:17;100731.63;;;14.60;100.00
51439;BME280;38816;51.142;-0.974;2023-05-12T09:38:42;100739.44;;;14.72;97.00
51439;BME280;38816;51.142;-0.974;2023-05-12T09:41:08;100736.03;;;14.76;99.55
51439;BME280;38816;51.142;-0.974;2023-05-12T09:43:34;100733.56;;;14.91;95.85
51439;BME280;38816;51.142;-0.974;2023-05-12T09:46:04;100740.38;;;14.80;94.44
51439;BME280;38816;51.142;-0.974;2023-05-12T09:48:30;100740.31;;;14.71;92.33
51439;BME280;38816;51.142;-0.974;2023-05-12T09:50:56;100752.59;;;14.97;93.29
51439;BME280;38816;51.142;-0.974;2023-05-12T09:53:21;100736.19;;;14.99;95.68
51439;BME280;38816;51.142;-0.974;2023-05-12T09:55:48;100740.53;;;15.03;90.52
51439;BME280;38816;51.142;-0.974;2023-05-12T09:58:18;100745.50;;;14.71;91.33
51439;BME280;38816;51.142;-0.974;2023-05-12T10:00:43;100745.31;;;14.50;92.32
51439;BME280;38816;51.142;-0.974;2023-05-12T10:03:14;100746.09;;;14.41;93.55
51439;BME280;38816;51.142;-0.974;2023-05-12T10:05:48;100748.53;;;14.27;95.63
51439;BME280;38816;51.142;-0.974;2023-05-12T10:08:19;100739.03;;;14.23;94.04
51439;BME280;38816;51.142;-0.974;2023-05-12T10:10:47;100733.91;;;14.31;96.31
51439;BME280;38816;51.142;-0.974;2023-05-12T10:13:15;100742.88;;;14.63;95.39
51439;BME280;38816;51.142;-0.974;2023-05-12T10:15:41;100740.63;;;15.20;93.70
51439;BME280;38816;51.142;-0.974;2023-05-12T10:18:07;100753.63;;;15.29;90.42
51439;BME280;38816;51.142;-0.974;2023-05-12T10:20:33;100739.81;;;15.29;92.51
51439;BME280;38816;51.142;-0.974;2023-05-12T10:23:00;100749.25;;;15.16;94.42
51439;BME280;38816;51.142;-0.974;2023-05-12T10:25:27;100755.47;;;15.50;89.07
51439;BME280;38816;51.142;-0.974;2023-05-12T10:27:54;100746.94;;;15.74;86.21
51439;BME280;38816;51.142;-0.974;2023-05-12T10:30:20;100737.41;;;15.64;86.29
51439;BME280;38816;51.142;-0.974;2023-05-12T10:32:46;100737.28;;;15.39;85.01
51439;BME280;38816;51.142;-0.974;2023-05-12T10:35:12;100733.81;;;15.37;83.81
51439;BME280;38816;51.142;-0.974;2023-05-12T10:37:38;100748.47;;;15.32;84.39
51439;BME280;38816;51.142;-0.974;2023-05-12T10:40:07;100735.63;;;15.54;82.08
51439;BME280;38816;51.142;-0.974;2023-05-12T10:42:40;100742.75;;;16.24;81.91
51439;BME280;38816;51.142;-0.974;2023-05-12T10:45:17;100734.13;;;16.44;77.74
51439;BME280;38816;51.142;-0.974;2023-05-12T10:47:44;100733.25;;;16.42;80.69
51439;BME280;38816;51.142;-0.974;2023-05-12T10:50:10;100734.09;;;16.43;75.57
51439;BME280;38816;51.142;-0.974;2023-05-12T10:52:40;100735.84;;;16.27;78.53
51439;BME280;38816;51.142;-0.974;2023-05-12T10:55:10;100745.31;;;16.20;81.46
51439;BME280;38816;51.142;-0.974;2023-05-12T10:57:48;100728.94;;;16.26;78.45
51439;BME280;38816;51.142;-0.974;2023-05-12T11:00:14;100728.94;;;16.26;78.19
51439;BME280;38816;51.142;-0.974;2023-05-12T11:02:48;100711.63;;;16.17;77.89
51439;BME280;38816;51.142;-0.974;2023-05-12T11:05:14;100729.75;;;16.04;79.29
51439;BME280;38816;51.142;-0.974;2023-05-12T11:07:46;100727.13;;;15.98;77.61
51439;BME280;38816;51.142;-0.974;2023-05-12T11:10:11;100728.03;;;16.24;79.66
51439;BME280;38816;51.142;-0.974;2023-05-12T11:12:37;100724.59;;;16.71;79.49
51439;BME280;38816;51.142;-0.974;2023-05-12T11:15:03;100715.03;;;17.01;74.63
51439;BME280;38816;51.142;-0.974;2023-05-12T11:17:29;100722.81;;;17.05;73.75
51439;BME280;38816;51.142;-0.974;2023-05-12T11:19:54;100714.19;;;17.03;75.37
51439;BME280;38816;51.142;-0.974;2023-05-12T11:22:21;100720.22;;;17.11;72.03
51439;BME280;38816;51.142;-0.974;2023-05-12T11:24:48;100729.81;;;16.85;72.75
51439;BME280;38816;51.142;-0.974;2023-05-12T11:27:16;100727.22;;;16.53;76.89
51439;BME280;38816;51.142;-0.974;2023-05-12T11:29:42;100733.22;;;16.33;76.29
51439;BME280;38816;51.142;-0.974;2023-05-12T11:32:09;100727.16;;;16.16;78.15
51439;BME280;38816;51.142;-0.974;2023-05-12T11:34:35;100716.75;;;15.93;79.54
51439;BME280;38816;51.142;-0.974;2023-05-12T11:37:02;100734.03;;;15.89;81.29
51439;BME280;38816;51.142;-0.974;2023-05-12T11:39:29;100733.97;;;15.65;82.05
51439;BME280;38816;51.142;-0.974;2023-05-12T11:42:02;100732.25;;;15.64;83.20
51439;BME280;38816;51.142;-0.974;2023-05-12T11:44:28;100761.31;;;15.14;87.51
51439;BME280;38816;51.142;-0.974;2023-05-12T11:46:59;100723.91;;;14.72;91.29
51439;BME280;38816;51.142;-0.974;2023-05-12T11:49:26;100739.19;;;14.44;96.07
51439;BME280;38816;51.142;-0.974;2023-05-12T11:51:53;100740.81;;;14.32;100.00
51439;BME280;38816;51.142;-0.974;2023-05-12T11:54:20;100722.75;;;14.33;100.00
51439;BME280;38816;51.142;-0.974;2023-05-12T11:56:52;100729.94;;;14.65;100.00
51439;BME280;38816;51.142;-0.974;2023-05-12T11:59:30;100723.88;;;14.67;100.00
51439;BME280;38816;51.142;-0.974;2023-05-12T12:02:01;100719.59;;;14.68;100.00
51439;BME280;38816;51.142;-0.974;2023-05-12T12:04:39;100734.19;;;14.61;100.00
51439;BME280;38816;51.142;-0.974;2023-05-12T12:07:07;100731.47;;;14.48;100.00
51439;BME280;38816;51.142;-0.974;2023-05-12T12:09:39;100727.13;;;14.45;100.00
51439;BME280;38816;51.142;-0.974;2023-05-12T12:12:07;100720.22;;;14.42;100.00
51439;BME280;38816;51.142;-0.974;2023-05-12T12:14:33;100721.19;;;14.51;100.00
51439;BME280;38816;51.142;-0.974;2023-05-12T12:17:00;100704.03;;;14.62;97.10
51439;BME280;38816;51.142;-0.974;2023-05-12T12:19:25;100706.72;;;14.80;94.91
51439;BME280;38816;51.142;-0.974;2023-05-12T12:21:55;100716.31;;;14.90;94.42
51439;BME280;38816;51.142;-0.974;2023-05-12T12:24:21;100737.97;;;15.06;92.74
51439;BME280;38816;51.142;-0.974;2023-05-12T12:26:47;100724.97;;;14.96;92.10
51439;BME280;38816;51.142;-0.974;2023-05-12T12:29:12;100728.28;;;14.73;91.44
51439;BME280;38816;51.142;-0.974;2023-05-12T12:31:38;100712.66;;;14.62;95.01
51439;BME280;38816;51.142;-0.974;2023-05-12T12:34:04;100729.03;;;14.63;98.52